Time;durP1;ratioP1;P1;durP2;ratioP2;P2;SDS_P1;SDS_P2;PMS_P1;PMS_P2;Temp;Humidity;BMP_temperature;BMP_pressure;BME280_temperature;BME280_humidity;BME280_pressure;Samples;Min_cycle;Max_cycle;Signal;HPM_P1;HPM_P2
2021/12/29 00:02:07;;;;;;;0.20;0.20;;;;;;;;;;5002844;28;20196;-61
2021/12/29 00:04:34;;;;;;;0.47;0.23;;;;;;;;;;5002440;28;20209;-61
2021/12/29 00:07:01;;;;;;;1.70;0.23;;;;;;;;;;5001288;28;20206;-61
2021/12/29 00:09:29;;;;;;;0.30;0.30;;;;;;;;;;5002670;28;20201;-61
2021/12/29 00:11:56;;;;;;;0.53;0.20;;;;;;;;;;5001531;28;20220;-61
2021/12/29 00:14:23;;;;;;;1.60;0.70;;;;;;;;;;5004097;28;20293;-60
2021/12/29 00:16:52;;;;;;;0.20;0.20;;;;;;;;;;5000172;28;20221;-60
2021/12/29 00:19:19;;;;;;;0.20;0.20;;;;;;;;;;4998323;28;20687;-61
2021/12/29 00:21:46;;;;;;;0.30;0.30;;;;;;;;;;5000734;28;20201;-61
2021/12/29 00:24:13;;;;;;;0.37;0.37;;;;;;;;;;5000685;28;20213;-60
2021/12/29 00:26:40;;;;;;;1.30;0.50;;;;;;;;;;4998822;28;20204;-60
2021/12/29 00:29:07;;;;;;;0.30;0.20;;;;;;;;;;5003368;28;20209;-60
2021/12/29 00:31:34;;;;;;;0.10;0.10;;;;;;;;;;5001905;28;20193;-60
2021/12/29 00:34:02;;;;;;;0.93;0.10;;;;;;;;;;5001965;28;20284;-60
2021/12/29 00:36:29;;;;;;;0.77;0.13;;;;;;;;;;5001004;28;20226;-61
2021/12/29 00:38:56;;;;;;;0.63;0.20;;;;;;;;;;5002252;28;20660;-61
2021/12/29 00:41:23;;;;;;;1.20;0.40;;;;;;;;;;5000342;28;20638;-60
2021/12/29 00:43:51;;;;;;;0.50;0.50;;;;;;;;;;5001193;28;20680;-60
2021/12/29 00:46:18;;;;;;;0.87;0.40;;;;;;;;;;5000524;28;20209;-60
2021/12/29 00:48:47;;;;;;;1.30;0.20;;;;;;;;;;4999653;28;20206;-61
2021/12/29 00:51:16;;;;;;;0.20;0.20;;;;;;;;;;5003008;28;20247;-61
2021/12/29 00:53:43;;;;;;;0.20;0.20;;;;;;;;;;4999239;28;20201;-60
2021/12/29 00:56:11;;;;;;;0.07;0.07;;;;;;;;;;4999586;28;20233;-61
2021/12/29 00:58:38;;;;;;;0.10;0.10;;;;;;;;;;4999678;28;20559;-61
2021/12/29 01:01:05;;;;;;;2.53;0.10;;;;;;;;;;5000626;28;20210;-61
2021/12/29 01:03:33;;;;;;;0.20;0.13;;;;;;;;;;5001098;28;20205;-61
2021/12/29 01:06:00;;;;;;;0.20;0.20;;;;;;;;;;4998992;28;20252;-61
2021/12/29 01:08:28;;;;;;;0.10;0.03;;;;;;;;;;4998861;28;20583;-61
2021/12/29 01:10:55;;;;;;;0.10;0.10;;;;;;;;;;4997615;28;20212;-61
2021/12/29 01:13:30;;;;;;;0.50;0.10;;;;;;;;;;5000110;28;20205;-61
2021/12/29 01:16:09;;;;;;;0.83;0.10;;;;;;;;;;4998545;28;21091;-61
2021/12/29 01:18:36;;;;;;;0.10;0.10;;;;;;;;;;5000952;28;20205;-61
2021/12/29 01:21:03;;;;;;;0.10;0.10;;;;;;;;;;4998809;28;20202;-61
2021/12/29 01:23:32;;;;;;;0.20;0.10;;;;;;;;;;5000944;28;20209;-61
2021/12/29 01:25:59;;;;;;;0.27;0.07;;;;;;;;;;5002307;28;20215;-61
2021/12/29 01:28:26;;;;;;;0.10;0.10;;;;;;;;;;4998684;28;20200;-61
2021/12/29 01:30:54;;;;;;;0.33;0.10;;;;;;;;;;4999320;28;20679;-61
2021/12/29 01:33:22;;;;;;;0.00;0.00;;;;;;;;;;4997282;28;20202;-61
2021/12/29 01:35:49;;;;;;;0.10;0.10;;;;;;;;;;4998248;28;20205;-61
2021/12/29 01:38:16;;;;;;;0.10;0.10;;;;;;;;;;4998539;28;20233;-60
2021/12/29 01:40:48;;;;;;;1.53;0.20;;;;;;;;;;4999151;28;20208;-60
2021/12/29 01:43:15;;;;;;;2.13;0.17;;;;;;;;;;5001815;28;20303;-63
2021/12/29 01:45:43;;;;;;;0.30;0.10;;;;;;;;;;4997590;28;20205;-60
2021/12/29 01:48:10;;;;;;;0.10;0.10;;;;;;;;;;4996653;28;20204;-61
2021/12/29 01:50:38;;;;;;;0.10;0.10;;;;;;;;;;5008738;28;20244;-61
2021/12/29 01:53:09;;;;;;;0.10;0.10;;;;;;;;;;5001566;28;20213;-61
2021/12/29 01:55:36;;;;;;;0.20;0.20;;;;;;;;;;5004615;28;20212;-61
2021/12/29 01:58:05;;;;;;;0.37;0.20;;;;;;;;;;4997261;28;20235;-61
2021/12/29 02:00:34;;;;;;;0.17;0.17;;;;;;;;;;5009101;28;20220;-61
2021/12/29 02:03:01;;;;;;;0.10;0.10;;;;;;;;;;5009044;28;20213;-61
2021/12/29 02:05:28;;;;;;;0.20;0.20;;;;;;;;;;5008603;28;20217;-61
2021/12/29 02:07:55;;;;;;;0.20;0.20;;;;;;;;;;5007652;28;20213;-61
2021/12/29 02:10:24;;;;;;;0.20;0.20;;;;;;;;;;5009899;28;20213;-61
2021/12/29 02:12:52;;;;;;;0.10;0.10;;;;;;;;;;5008954;28;20201;-61
2021/12/29 02:15:20;;;;;;;2.07;0.30;;;;;;;;;;5009576;28;20952;-61
2021/12/29 02:17:49;;;;;;;0.10;0.10;;;;;;;;;;5005239;28;20375;-60
2021/12/29 02:20:19;;;;;;;1.50;0.20;;;;;;;;;;5004540;28;20686;-61
2021/12/29 02:22:49;;;;;;;0.10;0.10;;;;;;;;;;5004262;28;20208;-61
2021/12/29 02:25:32;;;;;;;0.83;0.23;;;;;;;;;;5005733;28;20213;-61
2021/12/29 02:28:01;;;;;;;0.00;0.00;;;;;;;;;;5009536;28;20210;-61
2021/12/29 02:30:29;;;;;;;0.40;0.20;;;;;;;;;;5009116;28;20292;-61
2021/12/29 02:33:00;;;;;;;0.07;0.07;;;;;;;;;;5009813;28;20247;-61
2021/12/29 02:35:29;;;;;;;0.20;0.20;;;;;;;;;;5009436;28;20213;-61
2021/12/29 02:37:57;;;;;;;0.20;0.10;;;;;;;;;;5008010;28;20224;-61
2021/12/29 02:40:24;;;;;;;0.00;0.00;;;;;;;;;;5005276;28;20205;-61
2021/12/29 02:42:51;;;;;;;0.30;0.00;;;;;;;;;;5009081;28;20204;-61
2021/12/29 02:45:22;;;;;;;0.20;0.20;;;;;;;;;;5007908;28;20229;-61
2021/12/29 02:47:49;;;;;;;0.00;0.00;;;;;;;;;;5006630;28;20201;-61
2021/12/29 02:50:18;;;;;;;0.30;0.30;;;;;;;;;;4992740;28;20237;-61
2021/12/29 02:52:47;;;;;;;0.10;0.10;;;;;;;;;;5001507;28;20221;-61
2021/12/29 02:55:14;;;;;;;0.00;0.00;;;;;;;;;;5006918;28;20215;-62
2021/12/29 02:57:41;;;;;;;0.10;0.10;;;;;;;;;;5009082;28;20225;-61
2021/12/29 03:00:12;;;;;;;0.00;0.00;;;;;;;;;;5008545;28;20216;-61
2021/12/29 03:02:39;;;;;;;0.67;0.17;;;;;;;;;;5007164;28;20209;-63
2021/12/29 03:05:07;;;;;;;0.10;0.10;;;;;;;;;;4993320;28;20731;-63
2021/12/29 03:07:34;;;;;;;0.00;0.00;;;;;;;;;;4989514;28;20205;-61
2021/12/29 03:10:02;;;;;;;0.00;0.00;;;;;;;;;;4991530;28;20218;-61
2021/12/29 03:12:37;;;;;;;1.43;0.27;;;;;;;;;;5009142;28;20825;-61
2021/12/29 03:15:04;;;;;;;0.53;0.30;;;;;;;;;;5006839;28;20201;-61
2021/12/29 03:17:32;;;;;;;0.20;0.07;;;;;;;;;;4992349;28;20730;-61
2021/12/29 03:19:59;;;;;;;1.20;0.30;;;;;;;;;;4998830;28;20205;-61
2021/12/29 03:22:26;;;;;;;0.00;0.00;;;;;;;;;;5010257;28;20205;-61
2021/12/29 03:24:53;;;;;;;0.53;0.10;;;;;;;;;;5009836;28;20217;-61
2021/12/29 03:27:21;;;;;;;0.20;0.20;;;;;;;;;;4992986;28;20276;-62
2021/12/29 03:29:48;;;;;;;0.10;0.10;;;;;;;;;;5006872;28;20201;-61
2021/12/29 03:32:23;;;;;;;0.10;0.10;;;;;;;;;;5012609;28;20224;-61
2021/12/29 03:34:50;;;;;;;0.00;0.00;;;;;;;;;;5012224;28;20263;-62
2021/12/29 03:37:17;;;;;;;0.10;0.10;;;;;;;;;;5011876;28;20228;-62
2021/12/29 03:39:44;;;;;;;0.20;0.20;;;;;;;;;;5011268;28;20201;-62
2021/12/29 03:42:11;;;;;;;0.20;0.20;;;;;;;;;;5008827;28;20667;-61
2021/12/29 03:44:39;;;;;;;1.33;0.10;;;;;;;;;;5009985;28;20216;-62
2021/12/29 03:47:07;;;;;;;0.10;0.10;;;;;;;;;;5009815;28;20260;-62
2021/12/29 03:49:34;;;;;;;0.10;0.10;;;;;;;;;;4993086;28;20230;-61
2021/12/29 03:52:02;;;;;;;0.10;0.10;;;;;;;;;;4992294;28;20300;-61
2021/12/29 03:54:29;;;;;;;0.30;0.20;;;;;;;;;;5010716;28;20638;-61
2021/12/29 03:57:00;;;;;;;0.00;0.00;;;;;;;;;;5009298;28;20205;-61
2021/12/29 03:59:28;;;;;;;0.43;0.20;;;;;;;;;;5011530;28;20219;-61
2021/12/29 04:01:56;;;;;;;0.10;0.10;;;;;;;;;;5009752;28;20806;-63
2021/12/29 04:04:23;;;;;;;0.10;0.10;;;;;;;;;;5011225;28;20244;-61
2021/12/29 04:06:50;;;;;;;0.20;0.20;;;;;;;;;;5003172;28;20244;-61
2021/12/29 04:09:18;;;;;;;0.00;0.00;;;;;;;;;;4988560;28;20232;-60
2021/12/29 04:11:50;;;;;;;0.10;0.10;;;;;;;;;;4997724;28;20201;-60
2021/12/29 04:14:17;;;;;;;0.10;0.10;;;;;;;;;;5011225;28;20201;-60
2021/12/29 04:16:46;;;;;;;0.20;0.20;;;;;;;;;;5010336;28;20197;-61
2021/12/29 04:19:17;;;;;;;0.30;0.30;;;;;;;;;;4992076;28;20261;-61
2021/12/29 04:21:44;;;;;;;0.17;0.17;;;;;;;;;;4997563;28;20201;-60
2021/12/29 04:24:11;;;;;;;0.20;0.20;;;;;;;;;;5009844;28;20232;-61
2021/12/29 04:26:39;;;;;;;0.03;0.03;;;;;;;;;;5011099;28;20575;-61
2021/12/29 04:29:06;;;;;;;0.20;0.20;;;;;;;;;;4993130;28;20218;-61
2021/12/29 04:31:34;;;;;;;0.17;0.17;;;;;;;;;;4995749;28;20687;-61
2021/12/29 04:34:01;;;;;;;0.10;0.10;;;;;;;;;;5011183;28;20212;-63
2021/12/29 04:36:29;;;;;;;0.17;0.17;;;;;;;;;;5010170;28;20209;-60
2021/12/29 04:38:58;;;;;;;0.10;0.10;;;;;;;;;;5010330;28;20247;-61
2021/12/29 04:41:25;;;;;;;0.83;0.37;;;;;;;;;;5010554;28;20673;-61
2021/12/29 04:43:52;;;;;;;0.10;0.10;;;;;;;;;;4992864;28;20209;-61
2021/12/29 04:46:27;;;;;;;0.20;0.20;;;;;;;;;;5008249;28;20211;-61
2021/12/29 04:49:00;;;;;;;0.10;0.10;;;;;;;;;;5007644;28;20208;-60
2021/12/29 04:51:34;;;;;;;0.20;0.20;;;;;;;;;;4991281;28;20246;-61
2021/12/29 04:54:03;;;;;;;0.20;0.20;;;;;;;;;;4993112;28;20215;-61
2021/12/29 04:56:31;;;;;;;0.10;0.10;;;;;;;;;;5010919;28;20316;-61
2021/12/29 04:58:58;;;;;;;0.03;0.03;;;;;;;;;;5008115;28;20707;-61
2021/12/29 05:01:25;;;;;;;0.10;0.10;;;;;;;;;;5010510;28;20314;-61
2021/12/29 05:03:53;;;;;;;0.10;0.10;;;;;;;;;;5010661;28;20212;-62
2021/12/29 05:09:07;;;;;;;0.20;0.20;;;;;;;;;;4994661;28;20231;-61
2021/12/29 05:11:34;;;;;;;0.10;0.10;;;;;;;;;;5009810;28;20675;-61
2021/12/29 05:14:01;;;;;;;0.20;0.20;;;;;;;;;;4997378;28;20206;-61
2021/12/29 05:16:28;;;;;;;0.10;0.10;;;;;;;;;;4990441;28;20210;-61
2021/12/29 05:18:56;;;;;;;0.43;0.30;;;;;;;;;;4990625;28;20602;-61
2021/12/29 05:21:25;;;;;;;0.00;0.00;;;;;;;;;;4990141;28;20229;-61
2021/12/29 05:23:52;;;;;;;0.20;0.20;;;;;;;;;;4990914;28;20752;-61
2021/12/29 05:26:20;;;;;;;0.07;0.07;;;;;;;;;;5009567;28;20686;-61
2021/12/29 05:28:47;;;;;;;0.67;0.20;;;;;;;;;;5008743;28;20813;-61
2021/12/29 05:31:14;;;;;;;0.30;0.10;;;;;;;;;;5009816;28;20295;-61
2021/12/29 05:33:41;;;;;;;0.20;0.20;;;;;;;;;;5001084;28;20680;-61
2021/12/29 05:36:08;;;;;;;0.10;0.10;;;;;;;;;;5003641;28;20686;-61
2021/12/29 05:38:35;;;;;;;0.10;0.10;;;;;;;;;;4993353;28;20257;-61
2021/12/29 05:41:03;;;;;;;0.03;0.03;;;;;;;;;;4987050;28;20209;-61
2021/12/29 05:43:31;;;;;;;0.23;0.23;;;;;;;;;;5004794;28;20208;-61
2021/12/29 05:45:58;;;;;;;0.07;0.07;;;;;;;;;;5006669;28;20213;-61
2021/12/29 05:48:25;;;;;;;0.83;0.10;;;;;;;;;;5007568;28;20205;-61
2021/12/29 05:50:52;;;;;;;0.10;0.10;;;;;;;;;;4996176;28;20233;-61
2021/12/29 05:53:19;;;;;;;0.10;0.10;;;;;;;;;;5009803;28;20212;-61
2021/12/29 05:55:49;;;;;;;0.10;0.10;;;;;;;;;;5009251;28;20213;-61
2021/12/29 05:58:16;;;;;;;0.10;0.10;;;;;;;;;;5009896;28;20249;-61
2021/12/29 06:00:45;;;;;;;0.20;0.20;;;;;;;;;;4992284;28;20732;-61
2021/12/29 06:03:12;;;;;;;0.10;0.10;;;;;;;;;;5006501;28;20209;-60
2021/12/29 06:05:39;;;;;;;0.10;0.10;;;;;;;;;;4991642;28;20267;-61
2021/12/29 06:08:07;;;;;;;0.10;0.00;;;;;;;;;;5009816;28;20205;-61
2021/12/29 06:10:34;;;;;;;0.10;0.10;;;;;;;;;;4997437;28;20217;-61
2021/12/29 06:13:01;;;;;;;0.10;0.10;;;;;;;;;;4990153;28;20218;-61
2021/12/29 06:15:28;;;;;;;1.50;0.10;;;;;;;;;;4991573;28;20232;-61
2021/12/29 06:17:56;;;;;;;0.10;0.10;;;;;;;;;;5008794;28;20237;-61
2021/12/29 06:20:23;;;;;;;0.00;0.00;;;;;;;;;;5009239;28;20220;-61
2021/12/29 06:22:50;;;;;;;0.10;0.10;;;;;;;;;;5009161;28;20882;-61
2021/12/29 06:25:19;;;;;;;0.20;0.20;;;;;;;;;;5005906;28;20368;-61
2021/12/29 06:27:46;;;;;;;0.20;0.20;;;;;;;;;;5007875;28;20212;-61
2021/12/29 06:30:15;;;;;;;0.20;0.20;;;;;;;;;;5008380;28;20208;-61
2021/12/29 06:32:42;;;;;;;0.10;0.10;;;;;;;;;;5009593;28;20278;-61
2021/12/29 06:35:12;;;;;;;1.07;0.43;;;;;;;;;;5004371;28;20212;-61
2021/12/29 06:37:39;;;;;;;0.10;0.10;;;;;;;;;;5008830;28;20580;-61
2021/12/29 06:40:07;;;;;;;0.63;0.23;;;;;;;;;;5006669;28;20205;-61
2021/12/29 06:42:34;;;;;;;0.10;0.10;;;;;;;;;;5009290;28;20220;-60
2021/12/29 06:45:01;;;;;;;0.30;0.30;;;;;;;;;;5003310;28;20201;-61
2021/12/29 06:47:28;;;;;;;0.20;0.20;;;;;;;;;;5007083;28;20213;-61
2021/12/29 06:49:55;;;;;;;0.20;0.20;;;;;;;;;;5006258;28;20765;-61
2021/12/29 06:52:23;;;;;;;0.30;0.30;;;;;;;;;;5008727;28;20209;-61
2021/12/29 06:54:51;;;;;;;0.27;0.17;;;;;;;;;;5010206;28;20244;-61
2021/12/29 06:57:18;;;;;;;0.10;0.10;;;;;;;;;;5011545;28;20225;-61
2021/12/29 06:59:45;;;;;;;0.10;0.10;;;;;;;;;;5011931;28;20236;-61
2021/12/29 07:02:14;;;;;;;0.20;0.20;;;;;;;;;;5012892;28;20204;-61
2021/12/29 07:04:42;;;;;;;2.83;0.23;;;;;;;;;;5012409;28;20198;-61
2021/12/29 07:07:09;;;;;;;0.57;0.20;;;;;;;;;;5012224;28;20212;-61
2021/12/29 07:09:37;;;;;;;0.43;0.20;;;;;;;;;;4996999;28;20198;-61
2021/12/29 07:12:05;;;;;;;1.03;0.70;;;;;;;;;;4993253;28;20210;-61
2021/12/29 07:14:32;;;;;;;0.20;0.20;;;;;;;;;;5003003;28;20201;-60
2021/12/29 07:16:59;;;;;;;2.40;0.27;;;;;;;;;;5010558;28;20255;-61
2021/12/29 07:19:26;;;;;;;0.20;0.20;;;;;;;;;;5012750;28;20275;-61
2021/12/29 07:21:53;;;;;;;0.63;0.63;;;;;;;;;;5012200;28;20221;-60
2021/12/29 07:24:20;;;;;;;2.13;0.60;;;;;;;;;;5007085;28;20678;-61
2021/12/29 07:26:49;;;;;;;0.50;0.50;;;;;;;;;;5010673;28;20648;-61
2021/12/29 07:29:16;;;;;;;0.27;0.27;;;;;;;;;;5011972;28;20214;-61
2021/12/29 07:31:43;;;;;;;0.20;0.20;;;;;;;;;;5012555;28;20675;-61
2021/12/29 07:34:10;;;;;;;0.50;0.20;;;;;;;;;;5005026;28;20209;-61
2021/12/29 07:36:37;;;;;;;0.30;0.30;;;;;;;;;;4992887;28;20288;-62
2021/12/29 07:39:04;;;;;;;0.23;0.23;;;;;;;;;;5000298;28;20225;-61
2021/12/29 07:41:32;;;;;;;0.93;0.20;;;;;;;;;;5012266;28;20220;-61
2021/12/29 07:44:03;;;;;;;0.57;0.40;;;;;;;;;;5010663;28;20301;-61
2021/12/29 07:46:33;;;;;;;0.40;0.40;;;;;;;;;;4990987;28;20291;-61
2021/12/29 07:49:00;;;;;;;0.30;0.30;;;;;;;;;;4996445;28;20835;-61
2021/12/29 07:51:27;;;;;;;0.30;0.30;;;;;;;;;;4992446;28;20244;-61
2021/12/29 07:53:54;;;;;;;0.83;0.40;;;;;;;;;;4998634;28;20212;-61
2021/12/29 07:56:22;;;;;;;0.30;0.30;;;;;;;;;;5009974;28;20213;-61
2021/12/29 07:58:49;;;;;;;0.60;0.30;;;;;;;;;;5004599;28;20236;-61
2021/12/29 08:01:18;;;;;;;0.63;0.40;;;;;;;;;;4990557;28;20625;-60
2021/12/29 08:03:45;;;;;;;0.30;0.30;;;;;;;;;;4992940;28;21859;-61
2021/12/29 08:06:12;;;;;;;0.50;0.50;;;;;;;;;;4990561;28;20209;-61
2021/12/29 08:08:39;;;;;;;0.73;0.27;;;;;;;;;;4996045;28;20570;-61
2021/12/29 08:11:06;;;;;;;1.43;0.53;;;;;;;;;;5009963;28;20209;-61
2021/12/29 08:13:33;;;;;;;0.87;0.40;;;;;;;;;;4994078;28;20204;-61
2021/12/29 08:16:00;;;;;;;0.37;0.37;;;;;;;;;;5008949;28;20224;-61
2021/12/29 08:18:28;;;;;;;0.77;0.77;;;;;;;;;;4999366;28;20205;-61
2021/12/29 08:20:56;;;;;;;1.60;0.87;;;;;;;;;;5011236;28;20208;-61
2021/12/29 08:23:25;;;;;;;0.83;0.60;;;;;;;;;;5010773;28;20209;-61
2021/12/29 08:25:52;;;;;;;0.67;0.43;;;;;;;;;;5009673;28;20295;-62
2021/12/29 08:28:20;;;;;;;1.20;0.40;;;;;;;;;;5011215;28;20268;-62
2021/12/29 08:30:47;;;;;;;0.50;0.50;;;;;;;;;;5011195;28;20755;-62
2021/12/29 08:33:14;;;;;;;0.30;0.30;;;;;;;;;;5009322;28;20209;-61
2021/12/29 08:35:43;;;;;;;0.20;0.20;;;;;;;;;;4999054;28;20213;-61
2021/12/29 08:38:10;;;;;;;0.30;0.30;;;;;;;;;;5010858;28;20705;-61
2021/12/29 08:40:37;;;;;;;0.40;0.30;;;;;;;;;;5000340;28;20224;-62
2021/12/29 08:43:04;;;;;;;0.20;0.20;;;;;;;;;;5010283;28;20205;-62
2021/12/29 08:45:32;;;;;;;0.30;0.30;;;;;;;;;;5000843;28;20206;-62
2021/12/29 08:47:59;;;;;;;0.40;0.40;;;;;;;;;;4999293;28;20668;-62
2021/12/29 08:50:29;;;;;;;0.20;0.20;;;;;;;;;;5007951;28;20225;-62
2021/12/29 08:52:58;;;;;;;0.43;0.40;;;;;;;;;;5007764;28;20206;-62
2021/12/29 08:55:25;;;;;;;0.77;0.50;;;;;;;;;;5006431;28;20726;-62
2021/12/29 08:57:52;;;;;;;0.40;0.40;;;;;;;;;;4998293;28;20200;-61
2021/12/29 09:00:19;;;;;;;1.40;0.70;;;;;;;;;;5010368;28;20283;-61
2021/12/29 09:02:46;;;;;;;0.50;0.50;;;;;;;;;;4997334;28;20216;-62
2021/12/29 09:05:16;;;;;;;2.73;0.67;;;;;;;;;;5008370;28;20206;-61
2021/12/29 09:07:43;;;;;;;0.40;0.40;;;;;;;;;;5008393;28;20205;-61
2021/12/29 09:10:12;;;;;;;0.70;0.43;;;;;;;;;;5010031;28;20212;-62
2021/12/29 09:12:39;;;;;;;0.40;0.33;;;;;;;;;;5008868;28;20209;-62
2021/12/29 09:15:07;;;;;;;0.50;0.40;;;;;;;;;;5008975;28;20208;-62
2021/12/29 09:17:34;;;;;;;0.30;0.20;;;;;;;;;;5005264;28;20434;-61
2021/12/29 09:20:02;;;;;;;1.27;0.60;;;;;;;;;;5009575;28;20237;-62
2021/12/29 09:22:29;;;;;;;0.53;0.53;;;;;;;;;;5004434;28;20586;-62
2021/12/29 09:24:56;;;;;;;3.90;0.90;;;;;;;;;;5005457;28;20593;-62
2021/12/29 09:27:25;;;;;;;1.57;1.47;;;;;;;;;;5009667;28;20209;-62
2021/12/29 09:29:55;;;;;;;0.53;0.53;;;;;;;;;;5008757;28;20295;-63
2021/12/29 09:32:22;;;;;;;3.20;0.50;;;;;;;;;;4999129;28;20596;-66
2021/12/29 09:34:49;;;;;;;1.10;0.47;;;;;;;;;;5007585;28;20289;-62
2021/12/29 09:37:16;;;;;;;0.27;0.20;;;;;;;;;;5004130;28;20205;-61
2021/12/29 09:39:43;;;;;;;3.03;0.50;;;;;;;;;;4990462;28;20712;-63
2021/12/29 09:42:10;;;;;;;0.30;0.30;;;;;;;;;;4996965;28;20271;-62
2021/12/29 09:44:38;;;;;;;0.70;0.30;;;;;;;;;;5005736;28;20213;-62
2021/12/29 09:47:08;;;;;;;0.40;0.33;;;;;;;;;;5010341;28;20225;-61
2021/12/29 09:49:37;;;;;;;0.30;0.30;;;;;;;;;;5009605;28;20593;-61
2021/12/29 09:52:05;;;;;;;2.50;0.40;;;;;;;;;;5009363;28;20786;-62
2021/12/29 09:54:32;;;;;;;0.47;0.30;;;;;;;;;;5008236;28;20208;-62
2021/12/29 09:57:00;;;;;;;0.67;0.40;;;;;;;;;;5009042;28;20213;-61
2021/12/29 09:59:28;;;;;;;1.77;0.60;;;;;;;;;;4999771;28;21590;-61
2021/12/29 10:01:58;;;;;;;0.30;0.30;;;;;;;;;;4993651;28;20205;-62
2021/12/29 10:04:25;;;;;;;0.20;0.20;;;;;;;;;;4993100;28;20221;-62
2021/12/29 10:06:52;;;;;;;0.27;0.27;;;;;;;;;;4990273;28;20214;-62
2021/12/29 10:09:21;;;;;;;0.20;0.20;;;;;;;;;;5006104;28;20201;-62
2021/12/29 10:11:48;;;;;;;0.87;0.63;;;;;;;;;;5009369;28;20219;-62
2021/12/29 10:14:17;;;;;;;0.50;0.50;;;;;;;;;;5008743;28;20231;-62
2021/12/29 10:16:46;;;;;;;1.03;0.40;;;;;;;;;;5009592;28;20217;-62
2021/12/29 10:19:16;;;;;;;0.30;0.23;;;;;;;;;;5008598;28;20276;-62
2021/12/29 10:21:44;;;;;;;0.30;0.30;;;;;;;;;;5009557;28;20213;-62
2021/12/29 10:24:11;;;;;;;0.30;0.30;;;;;;;;;;5009232;28;20274;-62
2021/12/29 10:26:40;;;;;;;0.50;0.50;;;;;;;;;;5010141;28;20573;-62
2021/12/29 10:29:09;;;;;;;0.73;0.50;;;;;;;;;;5010858;28;20209;-62
2021/12/29 10:31:38;;;;;;;0.53;0.33;;;;;;;;;;5005446;28;20347;-62
2021/12/29 10:34:07;;;;;;;0.60;0.40;;;;;;;;;;4996239;28;20279;-62
2021/12/29 10:36:39;;;;;;;1.60;0.40;;;;;;;;;;4997225;28;20237;-62
2021/12/29 10:39:08;;;;;;;2.10;0.50;;;;;;;;;;5002965;28;20228;-62
2021/12/29 10:41:44;;;;;;;1.17;0.40;;;;;;;;;;5000839;28;20213;-62
2021/12/29 10:44:12;;;;;;;0.33;0.33;;;;;;;;;;4993791;28;20209;-62
2021/12/29 10:46:40;;;;;;;0.40;0.40;;;;;;;;;;5000835;28;20212;-62
2021/12/29 10:49:08;;;;;;;2.83;0.70;;;;;;;;;;5001117;28;20205;-62
2021/12/29 10:51:37;;;;;;;2.63;0.50;;;;;;;;;;5012454;28;20238;-62
2021/12/29 10:54:06;;;;;;;4.13;0.50;;;;;;;;;;5012561;28;20236;-62
2021/12/29 10:56:33;;;;;;;1.77;0.70;;;;;;;;;;5002117;28;20644;-62
2021/12/29 10:59:00;;;;;;;1.57;0.43;;;;;;;;;;4999781;28;20213;-62
2021/12/29 11:01:27;;;;;;;0.50;0.50;;;;;;;;;;5012291;28;20228;-62
2021/12/29 11:03:57;;;;;;;1.23;0.57;;;;;;;;;;5008791;28;20202;-62
2021/12/29 11:06:25;;;;;;;1.60;0.53;;;;;;;;;;5000820;28;20217;-62
2021/12/29 11:08:55;;;;;;;3.47;0.57;;;;;;;;;;5002379;28;20209;-64
2021/12/29 11:11:26;;;;;;;0.30;0.30;;;;;;;;;;4995410;28;20679;-62
2021/12/29 11:13:59;;;;;;;0.97;0.40;;;;;;;;;;5001848;28;20232;-62
2021/12/29 11:16:29;;;;;;;1.30;0.33;;;;;;;;;;5012120;28;20611;-62
2021/12/29 11:18:57;;;;;;;0.40;0.40;;;;;;;;;;5009390;28;20642;-62
2021/12/29 11:21:25;;;;;;;0.47;0.33;;;;;;;;;;5009482;28;20236;-63
2021/12/29 11:23:54;;;;;;;0.70;0.20;;;;;;;;;;5009092;28;20212;-63
2021/12/29 11:26:28;;;;;;;2.23;0.70;;;;;;;;;;4994880;28;20672;-62
2021/12/29 11:29:03;;;;;;;1.73;0.90;;;;;;;;;;5005807;28;20216;-63
2021/12/29 11:31:33;;;;;;;0.40;0.37;;;;;;;;;;4996572;28;20782;-63
2021/12/29 11:34:12;;;;;;;0.70;0.40;;;;;;;;;;4992458;28;20218;-63
2021/12/29 11:36:39;;;;;;;0.33;0.33;;;;;;;;;;5007558;28;20208;-63
2021/12/29 11:39:07;;;;;;;0.30;0.27;;;;;;;;;;5004482;28;20257;-63
2021/12/29 11:41:34;;;;;;;0.93;0.63;;;;;;;;;;5002714;28;20275;-63
2021/12/29 11:44:01;;;;;;;2.07;0.40;;;;;;;;;;5010485;28;20616;-62
2021/12/29 11:46:28;;;;;;;0.50;0.50;;;;;;;;;;5004590;28;20205;-62
2021/12/29 11:48:56;;;;;;;0.40;0.40;;;;;;;;;;5012174;28;20267;-62
2021/12/29 11:51:31;;;;;;;1.53;0.30;;;;;;;;;;5011655;28;20233;-62
2021/12/29 11:54:03;;;;;;;0.20;0.20;;;;;;;;;;5005982;28;20297;-62
2021/12/29 11:56:40;;;;;;;0.20;0.20;;;;;;;;;;5010563;28;20208;-62
2021/12/29 11:59:07;;;;;;;0.50;0.20;;;;;;;;;;5011861;28;20213;-62
2021/12/29 12:01:34;;;;;;;0.73;0.40;;;;;;;;;;5010909;28;20225;-63
2021/12/29 12:04:02;;;;;;;0.83;0.37;;;;;;;;;;5011455;28;20205;-62
2021/12/29 12:06:30;;;;;;;0.20;0.20;;;;;;;;;;5011451;28;20228;-63
2021/12/29 12:09:09;;;;;;;1.10;0.30;;;;;;;;;;5007328;28;20898;-62
2021/12/29 12:11:38;;;;;;;1.93;0.43;;;;;;;;;;5005470;28;20213;-62
2021/12/29 12:14:16;;;;;;;0.60;0.47;;;;;;;;;;4992289;28;20229;-62
2021/12/29 12:16:48;;;;;;;2.33;0.50;;;;;;;;;;5006131;28;20612;-63
2021/12/29 12:19:18;;;;;;;1.70;0.33;;;;;;;;;;4992063;28;20222;-63
2021/12/29 12:21:45;;;;;;;1.17;0.50;;;;;;;;;;5007872;28;20229;-62
2021/12/29 12:24:21;;;;;;;0.53;0.40;;;;;;;;;;5000681;28;20217;-62
2021/12/29 12:26:57;;;;;;;1.33;0.70;;;;;;;;;;5011451;28;20208;-62
2021/12/29 12:29:24;;;;;;;0.47;0.37;;;;;;;;;;5006204;28;20664;-62
2021/12/29 12:32:13;;;;;;;1.60;0.40;;;;;;;;;;5002397;28;20236;-62
2021/12/29 12:34:53;;;;;;;0.40;0.40;;;;;;;;;;5000181;28;20307;-62
2021/12/29 12:37:21;;;;;;;0.87;0.40;;;;;;;;;;5008440;28;20208;-63
2021/12/29 12:39:55;;;;;;;0.97;0.30;;;;;;;;;;5005900;28;20593;-63
2021/12/29 12:42:24;;;;;;;2.87;0.47;;;;;;;;;;5009992;28;20213;-63
2021/12/29 12:44:51;;;;;;;2.80;0.50;;;;;;;;;;4995401;28;20676;-62
2021/12/29 12:47:18;;;;;;;0.60;0.30;;;;;;;;;;5005477;28;20793;-62
2021/12/29 12:49:47;;;;;;;1.40;0.40;;;;;;;;;;4997809;28;20232;-62
2021/12/29 12:52:14;;;;;;;0.80;0.50;;;;;;;;;;5006467;28;20197;-62
2021/12/29 12:54:45;;;;;;;0.53;0.30;;;;;;;;;;5005945;28;20311;-62
2021/12/29 12:57:12;;;;;;;0.40;0.40;;;;;;;;;;5005978;28;20263;-62
2021/12/29 12:59:43;;;;;;;0.70;0.70;;;;;;;;;;5005601;28;20216;-62
2021/12/29 13:02:13;;;;;;;0.70;0.50;;;;;;;;;;4988086;28;20209;-63
2021/12/29 13:04:43;;;;;;;0.67;0.67;;;;;;;;;;4986634;28;20206;-63
2021/12/29 13:07:11;;;;;;;3.80;0.70;;;;;;;;;;5004309;28;20278;-63
2021/12/29 13:09:46;;;;;;;0.63;0.63;;;;;;;;;;5006143;28;20213;-63
2021/12/29 13:12:13;;;;;;;3.63;0.67;;;;;;;;;;4994170;28;20212;-63
2021/12/29 13:14:41;;;;;;;1.30;0.70;;;;;;;;;;5006105;28;20401;-63
2021/12/29 13:17:09;;;;;;;0.90;0.70;;;;;;;;;;5004770;28;20303;-63
2021/12/29 13:19:36;;;;;;;2.23;0.50;;;;;;;;;;4999377;28;20214;-63
2021/12/29 13:22:03;;;;;;;2.40;0.67;;;;;;;;;;5002958;28;20236;-63
2021/12/29 13:24:32;;;;;;;0.63;0.60;;;;;;;;;;5005279;28;20216;-62
2021/12/29 13:26:59;;;;;;;3.50;0.50;;;;;;;;;;5005411;28;20267;-62
2021/12/29 13:29:26;;;;;;;1.37;0.53;;;;;;;;;;5005762;28;20213;-62
2021/12/29 13:31:55;;;;;;;0.67;0.67;;;;;;;;;;4997136;28;20220;-62
2021/12/29 13:34:22;;;;;;;1.70;0.50;;;;;;;;;;5005693;28;20215;-62
2021/12/29 13:36:50;;;;;;;1.20;0.40;;;;;;;;;;5006032;28;20579;-62
2021/12/29 13:39:17;;;;;;;0.50;0.50;;;;;;;;;;5006498;28;20204;-62
2021/12/29 13:41:45;;;;;;;0.57;0.57;;;;;;;;;;5002584;28;20229;-62
2021/12/29 13:44:12;;;;;;;0.90;0.63;;;;;;;;;;4991703;28;20205;-62
2021/12/29 13:46:40;;;;;;;1.17;0.50;;;;;;;;;;4997738;28;20201;-62
2021/12/29 13:49:10;;;;;;;0.50;0.50;;;;;;;;;;5000509;28;20301;-62
2021/12/29 13:51:39;;;;;;;0.50;0.50;;;;;;;;;;4987038;28;20232;-62
2021/12/29 13:54:08;;;;;;;0.63;0.63;;;;;;;;;;4990839;28;20272;-62
2021/12/29 13:56:36;;;;;;;1.53;0.67;;;;;;;;;;4989702;28;20221;-61
2021/12/29 13:59:05;;;;;;;3.27;0.90;;;;;;;;;;4982104;28;20223;-61
2021/12/29 14:01:33;;;;;;;0.60;0.60;;;;;;;;;;4988121;28;20598;-62
2021/12/29 14:04:00;;;;;;;1.50;0.87;;;;;;;;;;5001214;28;20209;-63
2021/12/29 14:06:28;;;;;;;0.80;0.77;;;;;;;;;;4985862;28;20220;-62
2021/12/29 14:08:56;;;;;;;4.30;0.67;;;;;;;;;;4985727;28;20213;-63
2021/12/29 14:11:24;;;;;;;0.60;0.60;;;;;;;;;;4986588;28;20205;-63
2021/12/29 14:13:59;;;;;;;0.50;0.50;;;;;;;;;;4986380;28;20210;-63
2021/12/29 14:16:27;;;;;;;0.50;0.50;;;;;;;;;;4994427;28;20213;-63
2021/12/29 14:18:57;;;;;;;0.40;0.40;;;;;;;;;;5001091;28;20212;-63
2021/12/29 14:21:27;;;;;;;1.33;0.80;;;;;;;;;;4992740;28;20225;-63
2021/12/29 14:23:56;;;;;;;1.80;0.63;;;;;;;;;;5005097;28;20217;-63
2021/12/29 14:26:25;;;;;;;2.73;0.80;;;;;;;;;;5005143;28;20208;-65
2021/12/29 14:28:53;;;;;;;1.27;1.10;;;;;;;;;;4997232;28;20213;-63
2021/12/29 14:31:21;;;;;;;1.53;0.47;;;;;;;;;;5002334;28;20227;-63
2021/12/29 14:33:51;;;;;;;0.97;0.77;;;;;;;;;;4994626;28;20210;-63
2021/12/29 14:36:27;;;;;;;2.23;0.87;;;;;;;;;;4997357;28;20217;-63
2021/12/29 14:39:01;;;;;;;0.67;0.67;;;;;;;;;;4988695;28;20244;-63
2021/12/29 14:41:29;;;;;;;0.50;0.50;;;;;;;;;;4997250;28;20231;-63
2021/12/29 14:44:00;;;;;;;0.60;0.60;;;;;;;;;;5003822;28;20300;-63
2021/12/29 14:46:27;;;;;;;1.37;0.70;;;;;;;;;;4993748;28;20214;-63
2021/12/29 14:48:55;;;;;;;1.37;0.60;;;;;;;;;;5004009;28;20213;-63
2021/12/29 14:51:22;;;;;;;0.60;0.60;;;;;;;;;;5004770;28;20247;-63
2021/12/29 14:53:49;;;;;;;0.77;0.77;;;;;;;;;;5002296;28;20910;-63